Time;durP1;ratioP1;P1;durP2;ratioP2;P2;SDS_P1;SDS_P2;PMS_P1;PMS_P2;Temp;Humidity;BMP_temperature;BMP_pressure;BME280_temperature;BME280_humidity;BME280_pressure;Samples;Min_cycle;Max_cycle;Signal;HPM_P1;HPM_P2
2023/01/06 00:01:19;;;;;;;10.57;2.43;;;14.10;76.10;14.20;97091.00;;;;5033289;28;20228;-87
2023/01/06 00:03:50;;;;;;;16.77;3.07;;;14.10;76.10;14.20;97085.00;;;;5035984;28;20244;-87
2023/01/06 00:06:19;;;;;;;5.03;2.40;;;14.00;76.10;14.20;97087.00;;;;5036734;28;20208;-87
2023/01/06 00:08:46;;;;;;;47.73;4.77;;;14.00;76.00;14.10;97086.00;;;;5032090;28;20199;-87
2023/01/06 00:11:15;;;;;;;3.20;1.90;;;14.00;75.80;14.10;97076.00;;;;5033319;28;20288;-87
2023/01/06 00:13:42;;;;;;;4.73;2.00;;;14.00;75.90;14.10;97069.00;;;;5036597;28;20439;-87
2023/01/06 00:16:15;;;;;;;24.70;3.37;;;13.90;75.70;14.00;97061.00;;;;5036732;28;20208;-87
2023/01/06 00:18:42;;;;;;;11.90;2.07;;;13.90;75.80;13.90;97061.00;;;;5036402;28;20226;-87
2023/01/06 00:21:11;;;;;;;30.50;4.40;;;13.80;75.60;13.90;97069.00;;;;5036185;28;20320;-87
2023/01/06 00:23:39;;;;;;;46.27;4.63;;;13.80;75.50;13.80;97058.00;;;;5035386;28;20193;-87
2023/01/06 00:26:09;;;;;;;21.10;2.93;;;13.70;75.40;13.80;97052.00;;;;5034763;28;20304;-87
2023/01/06 00:28:36;;;;;;;23.70;3.23;;;13.70;75.30;13.70;97050.00;;;;5034565;28;20205;-87
2023/01/06 00:31:10;;;;;;;38.33;5.00;;;13.60;75.20;13.60;97046.00;;;;5033581;28;20266;-87
2023/01/06 00:33:38;;;;;;;57.60;5.47;;;13.60;75.00;13.60;97052.00;;;;5036187;28;20205;-87
2023/01/06 00:36:07;;;;;;;23.90;3.73;;;13.50;75.00;13.50;97051.00;;;;5034006;28;20247;-87
2023/01/06 00:38:35;;;;;;;8.63;2.90;;;13.50;75.00;13.40;97049.00;;;;5036341;28;20200;-87
2023/01/06 00:42:02;;;;;;;19.93;3.30;;;13.40;74.90;13.40;97042.00;;;;5034857;28;20224;-87
2023/01/06 00:43:52;;;;;;;5.93;2.40;;;13.30;74.80;13.30;97051.00;;;;5034966;28;20692;-87
2023/01/06 00:46:22;;;;;;;3.37;1.87;;;13.20;74.70;13.30;97049.00;;;;5036240;28;20307;-87
2023/01/06 00:48:49;;;;;;;52.87;4.93;;;13.20;74.60;13.20;97047.00;;;;5037037;28;20579;-87
2023/01/06 00:51:17;;;;;;;51.00;5.17;;;13.10;74.70;13.10;97040.00;;;;5037399;28;20255;-88
2023/01/06 00:53:44;;;;;;;37.90;4.70;;;13.00;74.70;13.10;97037.00;;;;5034447;28;20229;-87
2023/01/06 00:56:11;;;;;;;65.00;6.10;;;13.00;74.90;13.00;97037.00;;;;5035446;28;20202;-86
2023/01/06 00:58:38;;;;;;;19.37;3.13;;;12.90;74.80;13.00;97031.00;;;;5035454;28;20670;-87
2023/01/06 01:01:06;;;;;;;14.27;3.00;;;12.90;74.90;13.00;97034.00;;;;5035007;28;20312;-87
2023/01/06 01:03:37;;;;;;;17.53;2.80;;;12.90;75.00;12.90;97023.00;;;;5035130;28;20205;-87
2023/01/06 01:06:07;;;;;;;4.97;2.33;;;12.80;75.10;12.90;97029.00;;;;5034637;28;20236;-87
2023/01/06 01:08:35;;;;;;;24.13;3.73;;;12.80;75.20;12.90;97029.00;;;;5034259;28;20285;-87
2023/01/06 01:11:04;;;;;;;2.50;2.30;;;12.70;75.30;12.90;97031.00;;;;5037889;28;20312;-87
2023/01/06 01:13:32;;;;;;;3.00;2.53;;;12.70;75.60;12.80;97040.00;;;;5037640;28;20196;-87
2023/01/06 01:16:07;;;;;;;2.67;2.47;;;12.70;76.00;12.80;97034.00;;;;5035941;28;20317;-88
2023/01/06 01:18:36;;;;;;;45.70;4.80;;;12.70;76.20;12.80;97039.00;;;;5038173;28;20240;-87
2023/01/06 01:21:04;;;;;;;3.60;2.63;;;12.70;76.40;12.70;97027.00;;;;5037651;28;20196;-88
2023/01/06 01:23:31;;;;;;;4.80;2.70;;;12.70;76.50;12.70;97036.00;;;;5036984;28;20200;-87
2023/01/06 01:25:58;;;;;;;2.10;1.93;;;12.60;76.30;12.70;97033.00;;;;5036144;28;20251;-87
2023/01/06 01:28:25;;;;;;;3.90;2.70;;;12.60;76.30;12.70;97024.00;;;;5038545;28;20221;-88
2023/01/06 01:30:59;;;;;;;59.20;6.63;;;12.60;76.30;12.70;97030.00;;;;5038328;28;20724;-88
2023/01/06 01:33:28;;;;;;;22.87;4.23;;;12.60;76.40;12.70;97024.00;;;;5038957;28;20197;-88
2023/01/06 01:35:56;;;;;;;23.07;4.37;;;12.60;76.40;12.70;97020.00;;;;5036401;28;20300;-87
2023/01/06 01:38:26;;;;;;;14.23;3.57;;;12.60;76.40;12.70;97022.00;;;;5037797;28;20280;-87
2023/01/06 01:40:53;;;;;;;4.23;2.70;;;12.60;76.40;12.70;97023.00;;;;5037029;28;21160;-88
2023/01/06 01:43:20;;;;;;;4.50;2.57;;;12.60;76.30;12.70;97019.00;;;;5034730;28;20303;-88
2023/01/06 01:45:52;;;;;;;49.63;5.33;;;12.50;76.10;12.60;97020.00;;;;5034956;28;20228;-88
2023/01/06 01:48:28;;;;;;;7.97;3.07;;;12.50;76.00;12.60;97020.00;;;;5036777;28;20243;-87
2023/01/06 01:50:59;;;;;;;2.57;2.20;;;12.50;76.10;12.60;97017.00;;;;5036714;28;20278;-87
2023/01/06 01:53:31;;;;;;;2.30;2.10;;;12.50;76.10;12.60;97021.00;;;;5034337;28;20288;-87
2023/01/06 01:56:04;;;;;;;15.03;2.87;;;12.50;76.10;12.60;97026.00;;;;5036304;28;20308;-87
2023/01/06 01:58:38;;;;;;;18.87;3.47;;;12.50;76.10;12.60;97028.00;;;;5036281;28;20574;-87
2023/01/06 02:01:09;;;;;;;8.00;2.20;;;12.50;76.10;12.50;97019.00;;;;5036610;28;20288;-87
2023/01/06 02:03:37;;;;;;;1.93;1.67;;;12.50;76.10;12.50;97014.00;;;;5038935;28;20880;-88
2023/01/06 02:06:15;;;;;;;10.50;2.93;;;12.40;76.00;12.50;97019.00;;;;5037319;28;20304;-87
2023/01/06 02:08:51;;;;;;;4.83;1.90;;;12.40;76.00;12.50;97015.00;;;;5037807;28;20301;-87
2023/01/06 02:11:19;;;;;;;12.10;2.63;;;12.40;75.90;12.50;97007.00;;;;5037115;28;20272;-88
2023/01/06 02:13:47;;;;;;;2.50;2.30;;;12.40;75.70;12.40;97005.00;;;;5035731;28;20653;-87
2023/01/06 02:16:22;;;;;;;22.73;3.60;;;12.40;75.60;12.40;97002.00;;;;5036650;28;20229;-88
2023/01/06 02:19:02;;;;;;;38.40;4.47;;;12.30;75.40;12.40;96999.00;;;;5036607;28;20291;-87
2023/01/06 02:22:04;;;;;;;45.57;5.20;;;12.30;75.40;12.30;97001.00;;;;5036672;28;20303;-87
2023/01/06 02:25:07;;;;;;;3.67;1.90;;;12.30;75.30;12.20;97001.00;;;;5038099;28;20303;-87
2023/01/06 02:28:26;;;;;;;7.40;2.33;;;12.20;75.10;12.20;96996.00;;;;5036674;28;20197;-87
2023/01/06 02:31:36;;;;;;;22.87;3.27;;;12.20;75.00;12.10;96991.00;;;;4965814;28;20278;-86
2023/01/06 02:34:14;;;;;;;14.60;2.80;;;12.10;74.90;12.00;96992.00;;;;5036722;28;20304;-87
2023/01/06 02:36:50;;;;;;;10.33;2.90;;;12.00;75.00;12.00;96983.00;;;;5035718;28;20270;-87
2023/01/06 02:39:36;;;;;;;34.57;5.07;;;12.00;75.00;11.90;96969.00;;;;5036948;28;20283;-88
2023/01/06 02:42:20;;;;;;;16.67;2.97;;;11.90;74.80;11.90;96972.00;;;;5036826;28;20783;-87
2023/01/06 02:45:02;;;;;;;7.63;2.70;;;11.90;74.70;11.80;96961.00;;;;5035818;28;20781;-88
2023/01/06 02:47:41;;;;;;;4.87;2.10;;;11.80;74.60;11.80;96969.00;;;;5037013;28;20288;-87
2023/01/06 02:50:21;;;;;;;18.97;3.00;;;11.70;74.50;11.70;96965.00;;;;5037476;28;20193;-87
2023/01/06 02:53:06;;;;;;;18.87;3.70;;;11.70;74.50;11.70;96949.00;;;;5036921;28;20662;-88
2023/01/06 02:55:39;;;;;;;4.90;2.33;;;11.60;74.50;11.60;96948.00;;;;5034804;28;20226;-88
2023/01/06 02:58:15;;;;;;;14.43;3.50;;;11.60;75.30;11.50;96950.00;;;;5036442;28;20209;-88
2023/01/06 03:00:48;;;;;;;27.10;4.33;;;11.50;74.70;11.50;96949.00;;;;5036388;28;20292;-87
2023/01/06 03:03:20;;;;;;;12.20;3.07;;;11.40;74.80;11.40;96954.00;;;;5035612;28;20240;-87
2023/01/06 03:05:53;;;;;;;38.37;5.10;;;11.40;74.90;11.40;96956.00;;;;5035947;28;20266;-87
2023/01/06 03:08:27;;;;;;;22.17;3.77;;;11.40;75.10;11.40;96947.00;;;;5036380;28;20192;-88
2023/01/06 03:10:57;;;;;;;37.63;4.87;;;11.30;75.20;11.30;96952.00;;;;5036495;28;20196;-88
2023/01/06 03:13:33;;;;;;;4.73;2.77;;;11.30;75.20;11.30;96951.00;;;;5035992;28;20551;-87
2023/01/06 03:16:01;;;;;;;2.63;2.43;;;11.30;75.50;11.30;96946.00;;;;5034903;28;21140;-88
2023/01/06 03:18:31;;;;;;;9.43;2.93;;;11.20;75.70;11.30;96945.00;;;;5037217;28;20209;-88
2023/01/06 03:21:03;;;;;;;6.27;2.77;;;11.20;75.80;11.20;96951.00;;;;5037100;28;20282;-87
2023/01/06 03:23:32;;;;;;;31.57;4.03;;;11.20;75.90;11.20;96947.00;;;;5036344;28;20316;-87
2023/01/06 03:25:59;;;;;;;29.23;4.00;;;11.20;75.90;11.20;96946.00;;;;5034391;28;20959;-88
2023/01/06 03:28:26;;;;;;;9.93;3.63;;;11.20;76.00;11.20;96945.00;;;;5035842;28;20288;-87
2023/01/06 03:31:00;;;;;;;8.60;3.30;;;11.20;76.00;11.20;96950.00;;;;5036248;28;21128;-87
2023/01/06 03:33:38;;;;;;;12.93;3.37;;;11.10;75.90;11.10;96943.00;;;;5033310;28;20204;-88
2023/01/06 03:36:20;;;;;;;20.20;3.90;;;11.10;75.80;11.10;96948.00;;;;5035138;28;20327;-87
2023/01/06 03:39:00;;;;;;;9.07;2.83;;;11.10;75.80;11.10;96939.00;;;;5036757;28;20275;-89
2023/01/06 03:44:35;;;;;;;7.90;3.07;;;11.00;75.80;11.00;96941.00;;;;5034273;28;21035;-87
2023/01/06 03:47:12;;;;;;;21.27;4.27;;;11.00;75.90;11.00;96943.00;;;;5036519;28;20277;-87
2023/01/06 03:49:53;;;;;;;17.47;3.97;;;11.00;76.00;11.00;96931.00;;;;5034562;28;20207;-87
2023/01/06 03:52:28;;;;;;;17.23;4.23;;;11.00;76.20;11.00;96935.00;;;;5035456;28;20243;-87
2023/01/06 03:55:03;;;;;;;9.57;3.87;;;11.00;76.30;10.90;96942.00;;;;5034981;28;20303;-88
2023/01/06 03:57:36;;;;;;;17.90;4.70;;;10.90;76.10;10.90;96939.00;;;;5033559;28;20220;-87
2023/01/06 04:00:13;;;;;;;8.70;4.00;;;10.90;75.90;10.90;96939.00;;;;5037489;28;20197;-88
2023/01/06 04:02:41;;;;;;;29.80;4.37;;;10.90;75.70;10.80;96943.00;;;;5034993;28;20208;-87
2023/01/06 04:05:14;;;;;;;6.70;2.93;;;10.90;75.60;10.80;96930.00;;;;5034344;28;20221;-87
2023/01/06 04:07:43;;;;;;;18.87;4.07;;;10.80;75.60;10.80;96934.00;;;;5033779;28;20299;-88
2023/01/06 04:10:12;;;;;;;6.47;2.97;;;10.70;75.50;10.80;96930.00;;;;5036248;28;20291;-88
2023/01/06 04:12:39;;;;;;;19.47;3.80;;;10.80;75.50;10.70;96929.00;;;;5038840;28;20239;-87
2023/01/06 04:15:10;;;;;;;4.97;3.10;;;10.70;75.40;10.70;96930.00;;;;5039578;28;20218;-87
2023/01/06 04:17:38;;;;;;;2.87;2.67;;;10.70;75.30;10.70;96934.00;;;;5041878;28;20236;-87
2023/01/06 04:20:07;;;;;;;3.00;2.80;;;10.70;75.20;10.60;96941.00;;;;5035093;28;20829;-87
2023/01/06 04:22:36;;;;;;;3.10;2.90;;;10.60;75.00;10.50;96939.00;;;;5035789;28;20326;-87
2023/01/06 04:25:05;;;;;;;3.67;3.37;;;10.60;74.80;10.50;96940.00;;;;5036781;28;20308;-87
2023/01/06 04:27:32;;;;;;;14.53;4.07;;;10.50;74.70;10.40;96947.00;;;;5035846;28;20217;-87
2023/01/06 04:29:59;;;;;;;32.70;5.30;;;10.40;74.80;10.40;96946.00;;;;5036709;28;20283;-87
2023/01/06 04:32:26;;;;;;;5.07;3.73;;;10.50;75.00;10.30;96949.00;;;;5034589;28;20651;-87
2023/01/06 04:34:53;;;;;;;23.07;5.33;;;10.40;75.00;10.30;96951.00;;;;5034447;28;20300;-87
2023/01/06 04:37:21;;;;;;;27.13;5.70;;;10.30;75.00;10.30;96944.00;;;;5035386;28;20571;-87
2023/01/06 04:39:49;;;;;;;32.93;5.80;;;10.40;75.30;10.30;96939.00;;;;5036547;28;20203;-87
2023/01/06 04:42:16;;;;;;;5.03;4.47;;;10.30;75.40;10.30;96940.00;;;;5036027;28;20231;-87
2023/01/06 04:44:44;;;;;;;37.40;5.80;;;10.30;75.60;10.30;96932.00;;;;5038331;28;20964;-87
2023/01/06 04:47:11;;;;;;;11.53;4.67;;;10.30;75.70;10.30;96933.00;;;;5038283;28;20279;-87
2023/01/06 04:49:38;;;;;;;6.27;4.00;;;10.30;75.80;10.30;96936.00;;;;5038574;28;20580;-87
2023/01/06 04:52:07;;;;;;;6.47;4.10;;;10.30;75.90;10.30;96930.00;;;;5037227;28;20649;-87
2023/01/06 04:54:34;;;;;;;9.10;4.57;;;10.30;76.00;10.30;96925.00;;;;5038318;28;20212;-87
2023/01/06 04:57:03;;;;;;;35.30;5.93;;;10.30;76.00;10.30;96933.00;;;;5038519;28;20203;-87
2023/01/06 04:59:30;;;;;;;52.60;6.77;;;10.30;76.20;10.30;96923.00;;;;5039196;28;20193;-87
2023/01/06 05:01:57;;;;;;;9.53;5.00;;;10.20;76.20;10.30;96922.00;;;;5039320;28;20288;-87
2023/01/06 05:04:26;;;;;;;14.60;4.43;;;10.20;76.30;10.30;96922.00;;;;5037904;28;20227;-88
2023/01/06 05:06:53;;;;;;;7.10;3.53;;;10.20;76.30;10.30;96926.00;;;;5036636;28;20225;-87
2023/01/06 05:09:20;;;;;;;15.13;4.77;;;10.20;76.30;10.20;96926.00;;;;5040213;28;20237;-87
2023/01/06 05:11:47;;;;;;;8.23;4.00;;;10.20;76.40;10.20;96918.00;;;;5039732;28;20233;-87
2023/01/06 05:14:16;;;;;;;10.30;3.80;;;10.20;76.50;10.20;96923.00;;;;5037677;28;20299;-87
2023/01/06 05:16:43;;;;;;;7.00;3.30;;;10.20;76.60;10.20;96917.00;;;;5039850;28;20251;-88
2023/01/06 05:19:10;;;;;;;8.07;3.00;;;10.20;76.50;10.20;96923.00;;;;5037474;28;21218;-87
2023/01/06 05:21:37;;;;;;;7.47;3.07;;;10.20;76.60;10.20;96921.00;;;;5037777;28;20201;-87
2023/01/06 05:24:05;;;;;;;6.20;3.07;;;10.20;76.80;10.20;96925.00;;;;5036759;28;20228;-87
2023/01/06 05:26:32;;;;;;;12.27;4.50;;;10.10;76.80;10.20;96931.00;;;;5037932;28;20232;-87
2023/01/06 05:28:59;;;;;;;17.87;4.13;;;10.10;76.90;10.20;96927.00;;;;5038137;28;20232;-88
2023/01/06 05:31:28;;;;;;;15.20;4.00;;;10.10;76.90;10.20;96923.00;;;;5037683;28;20694;-87
2023/01/06 05:33:55;;;;;;;15.67;4.23;;;10.10;77.00;10.20;96926.00;;;;5038562;28;20231;-88
2023/01/06 05:36:22;;;;;;;10.53;3.83;;;10.20;77.10;10.20;96920.00;;;;5036903;28;20748;-87
2023/01/06 05:38:54;;;;;;;16.80;3.37;;;10.10;77.20;10.20;96916.00;;;;5040172;28;20296;-88
2023/01/06 05:41:21;;;;;;;13.83;3.90;;;10.20;77.30;10.20;96921.00;;;;5037846;28;20273;-87
2023/01/06 05:43:48;;;;;;;21.00;5.30;;;10.10;77.30;10.20;96919.00;;;;5037432;28;20702;-88
2023/01/06 05:46:15;;;;;;;7.30;3.37;;;10.20;77.50;10.20;96920.00;;;;5037036;28;20565;-87
2023/01/06 05:48:44;;;;;;;16.03;3.43;;;10.20;77.50;10.30;96930.00;;;;5038042;28;20220;-85
2023/01/06 05:51:14;;;;;;;4.80;2.30;;;10.20;77.40;10.30;96923.00;;;;5038287;28;20283;-87
2023/01/06 05:53:43;;;;;;;11.50;2.73;;;10.20;77.30;10.30;96923.00;;;;5037393;28;20813;-87
2023/01/06 05:56:13;;;;;;;8.63;2.37;;;10.20;77.20;10.30;96931.00;;;;5034962;28;20292;-87
2023/01/06 05:58:44;;;;;;;9.73;2.43;;;10.20;77.10;10.20;96924.00;;;;5037036;28;20726;-87
2023/01/06 06:01:17;;;;;;;3.70;2.20;;;10.20;77.10;10.20;96928.00;;;;5035345;28;20217;-86
2023/01/06 06:03:45;;;;;;;3.67;2.10;;;10.20;77.10;10.20;96935.00;;;;5036852;28;20344;-87
2023/01/06 06:06:13;;;;;;;6.50;1.87;;;10.20;77.20;10.20;96931.00;;;;5037666;28;20197;-87
2023/01/06 06:08:40;;;;;;;3.73;1.87;;;10.20;77.20;10.10;96932.00;;;;5035226;28;20257;-88
2023/01/06 06:11:10;;;;;;;2.43;1.80;;;10.20;76.90;10.10;96930.00;;;;5037382;28;20200;-87
2023/01/06 06:13:37;;;;;;;22.20;2.93;;;10.10;76.80;10.10;96933.00;;;;5037477;28;20230;-88
2023/01/06 06:16:07;;;;;;;31.17;3.87;;;10.10;76.70;10.10;96936.00;;;;5037602;28;20232;-88
2023/01/06 06:18:35;;;;;;;2.20;2.10;;;10.10;76.70;10.00;96932.00;;;;5037278;28;20215;-87
2023/01/06 06:21:05;;;;;;;1.70;1.40;;;10.10;76.70;10.00;96942.00;;;;5036025;28;20201;-87
2023/01/06 06:23:32;;;;;;;1.13;1.10;;;10.10;76.60;10.00;96929.00;;;;5035879;28;20256;-87
2023/01/06 06:25:59;;;;;;;7.40;1.60;;;10.00;76.40;10.00;96936.00;;;;5036983;28;20298;-87
2023/01/06 06:28:27;;;;;;;15.93;2.30;;;10.00;76.40;10.00;96928.00;;;;5035026;28;20194;-87
2023/01/06 06:30:54;;;;;;;24.23;2.97;;;10.00;76.40;9.90;96928.00;;;;5037085;28;20229;-87
2023/01/06 06:33:21;;;;;;;36.93;3.40;;;10.00;76.40;9.90;96929.00;;;;5037766;28;20546;-86
2023/01/06 06:35:57;;;;;;;39.40;3.67;;;9.90;76.30;9.90;96924.00;;;;5036752;28;20313;-87
2023/01/06 06:38:25;;;;;;;24.33;2.40;;;9.90;76.40;9.90;96916.00;;;;5035175;28;20204;-87
2023/01/06 06:40:53;;;;;;;27.97;3.13;;;9.90;76.40;9.90;96914.00;;;;5035303;28;20228;-87
2023/01/06 06:43:20;;;;;;;1.43;1.00;;;9.90;76.30;9.90;96919.00;;;;5037689;28;20669;-88
2023/01/06 06:45:48;;;;;;;4.23;1.70;;;9.90;76.20;9.80;96920.00;;;;5034624;28;20605;-87
2023/01/06 06:48:16;;;;;;;9.90;1.50;;;9.90;76.20;9.80;96912.00;;;;5037202;28;20201;-88
2023/01/06 06:50:43;;;;;;;4.27;1.13;;;9.90;76.30;9.80;96912.00;;;;5035575;28;20225;-87
2023/01/06 06:53:10;;;;;;;3.40;1.27;;;9.80;76.10;9.80;96911.00;;;;5036403;28;20287;-87
2023/01/06 06:55:39;;;;;;;31.20;3.10;;;9.80;76.10;9.80;96913.00;;;;5035725;28;20308;-87
2023/01/06 06:58:06;;;;;;;4.73;1.40;;;9.80;76.20;9.80;96910.00;;;;5037513;28;20687;-87
2023/01/06 07:00:33;;;;;;;22.53;3.23;;;9.80;76.20;9.80;96909.00;;;;5035678;28;20204;-87
2023/01/06 07:03:00;;;;;;;0.87;0.87;;;9.80;76.90;9.80;96903.00;;;;5034760;28;20228;-87
2023/01/06 07:05:28;;;;;;;1.33;1.23;;;9.70;76.10;9.70;96906.00;;;;5034708;28;20235;-87
2023/01/06 07:07:55;;;;;;;12.30;1.53;;;9.70;76.00;9.70;96917.00;;;;5035367;28;20637;-87
2023/01/06 07:10:22;;;;;;;17.07;2.20;;;9.70;76.00;9.70;96912.00;;;;5036757;28;20705;-88
2023/01/06 07:12:51;;;;;;;46.87;3.83;;;9.70;76.10;9.70;96918.00;;;;5036176;28;20197;-87
2023/01/06 07:15:18;;;;;;;42.10;3.63;;;9.70;76.10;9.70;96920.00;;;;5034848;28;20323;-88
2023/01/06 07:17:45;;;;;;;38.67;3.17;;;9.70;76.30;9.70;96918.00;;;;5036675;28;20267;-87
2023/01/06 07:20:12;;;;;;;23.43;2.93;;;9.60;76.40;9.70;96918.00;;;;5035101;28;20197;-87
2023/01/06 07:22:40;;;;;;;2.47;1.10;;;9.60;76.40;9.70;96914.00;;;;5036148;28;20284;-87
2023/01/06 07:25:10;;;;;;;1.20;1.10;;;9.60;76.50;9.70;96912.00;;;;5037290;28;20282;-87
2023/01/06 07:27:38;;;;;;;0.87;0.87;;;9.60;76.60;9.60;96912.00;;;;5035542;28;20193;-87
2023/01/06 07:30:09;;;;;;;2.80;1.40;;;9.60;76.60;9.70;96907.00;;;;5035347;28;20626;-87
2023/01/06 07:32:36;;;;;;;19.70;2.37;;;9.60;76.70;9.70;96908.00;;;;5035952;28;21088;-87
2023/01/06 07:35:04;;;;;;;24.27;2.47;;;9.70;76.80;9.70;96906.00;;;;5035844;28;20323;-87
2023/01/06 07:37:31;;;;;;;9.30;1.53;;;9.70;76.70;9.70;96904.00;;;;5037371;28;20691;-87
2023/01/06 07:39:58;;;;;;;2.73;1.67;;;9.70;76.60;9.70;96904.00;;;;5035128;28;20379;-87
2023/01/06 07:42:25;;;;;;;30.03;3.30;;;9.70;76.60;9.70;96915.00;;;;5034015;28;20284;-87
2023/01/06 07:44:52;;;;;;;2.43;1.23;;;9.70;76.60;9.70;96913.00;;;;5034171;28;20312;-87
2023/01/06 07:47:21;;;;;;;28.60;3.10;;;9.70;76.60;9.70;96915.00;;;;5035866;28;20228;-86
2023/01/06 07:49:48;;;;;;;27.13;2.93;;;9.70;76.70;9.70;96908.00;;;;5035525;28;20299;-87
2023/01/06 07:52:15;;;;;;;24.60;2.67;;;9.70;76.80;9.80;96918.00;;;;5033933;28;20287;-87
2023/01/06 07:54:42;;;;;;;20.53;2.80;;;9.70;77.70;9.80;96918.00;;;;5035684;28;20713;-87
2023/01/06 07:57:09;;;;;;;3.47;1.87;;;9.70;77.10;9.80;96930.00;;;;5034827;28;21282;-88
2023/01/06 07:59:36;;;;;;;11.83;2.50;;;9.70;77.10;9.90;96934.00;;;;5035177;28;20280;-89
2023/01/06 08:02:03;;;;;;;1.83;1.40;;;9.70;77.10;9.90;96926.00;;;;5035891;28;20293;-88
2023/01/06 08:04:34;;;;;;;1.60;1.50;;;9.80;77.20;9.90;96935.00;;;;5034914;28;20229;-88
2023/01/06 08:07:01;;;;;;;2.67;1.37;;;9.80;77.30;9.90;96926.00;;;;5035727;28;20207;-89
2023/01/06 08:09:28;;;;;;;17.50;2.77;;;9.80;77.30;10.00;96923.00;;;;5037399;28;20258;-89
2023/01/06 08:11:56;;;;;;;1.70;1.60;;;9.80;77.40;10.00;96917.00;;;;5036638;28;20596;-89
2023/01/06 08:14:23;;;;;;;3.13;1.80;;;9.90;77.40;10.00;96914.00;;;;5036608;28;20580;-89
2023/01/06 08:16:50;;;;;;;2.30;2.10;;;9.90;77.30;10.00;96918.00;;;;5028399;28;20202;-89
2023/01/06 08:19:18;;;;;;;2.37;2.17;;;9.90;77.30;10.00;96910.00;;;;5031962;28;20201;-88
2023/01/06 08:21:46;;;;;;;2.00;1.90;;;9.90;77.20;10.00;96913.00;;;;5033540;28;20208;-89
2023/01/06 08:24:13;;;;;;;2.10;1.73;;;9.90;77.20;10.00;96913.00;;;;5037366;28;20596;-88
2023/01/06 08:26:41;;;;;;;2.40;2.20;;;9.90;77.20;10.00;96920.00;;;;5035241;28;20288;-89
2023/01/06 08:29:08;;;;;;;2.83;2.53;;;9.90;77.40;10.10;96917.00;;;;5036185;28;20615;-89
2023/01/06 08:31:35;;;;;;;4.20;2.50;;;10.00;77.60;10.10;96913.00;;;;5036970;28;20338;-89
2023/01/06 08:34:02;;;;;;;3.00;2.70;;;10.00;77.60;10.10;96909.00;;;;5034501;28;20236;-88
2023/01/06 08:36:29;;;;;;;2.73;2.50;;;10.00;77.70;10.20;96910.00;;;;5035588;28;20755;-88
2023/01/06 08:38:58;;;;;;;2.73;2.53;;;10.00;77.80;10.20;96903.00;;;;5033430;28;20292;-88
2023/01/06 08:41:25;;;;;;;7.53;2.87;;;10.10;78.00;10.30;96905.00;;;;5036485;28;20283;-88
2023/01/06 08:43:52;;;;;;;20.57;3.23;;;10.10;78.10;10.30;96907.00;;;;5032328;28;20632;-88
2023/01/06 08:46:20;;;;;;;9.07;2.67;;;10.10;78.10;10.30;96907.00;;;;5034284;28;20279;-89
2023/01/06 08:48:48;;;;;;;1.70;1.30;;;10.20;78.20;10.40;96907.00;;;;5034052;28;20288;-88
2023/01/06 08:51:19;;;;;;;1.90;1.40;;;10.20;78.30;10.40;96910.00;;;;5035947;28;20221;-89
2023/01/06 08:53:46;;;;;;;2.63;1.80;;;10.30;78.40;10.50;96912.00;;;;5034194;28;20204;-89
2023/01/06 08:56:18;;;;;;;4.73;1.90;;;10.30;78.50;10.60;96912.00;;;;5034134;28;20193;-89
2023/01/06 08:58:45;;;;;;;1.70;1.60;;;10.40;78.70;10.60;96918.00;;;;5035550;28;20205;-89
2023/01/06 09:01:17;;;;;;;2.07;1.90;;;10.40;78.70;10.70;96922.00;;;;5034215;28;20764;-88
2023/01/06 09:03:45;;;;;;;13.90;2.40;;;10.50;78.80;10.70;96914.00;;;;5033298;28;20271;-88
2023/01/06 09:06:12;;;;;;;4.20;1.70;;;10.50;78.80;10.80;96914.00;;;;5036303;28;20228;-88
2023/01/06 09:08:40;;;;;;;1.73;1.63;;;10.60;78.90;10.80;96919.00;;;;5036702;28;20233;-89
2023/01/06 09:11:09;;;;;;;5.20;1.63;;;10.60;79.00;10.90;96940.00;;;;5034544;28;20208;-87
2023/01/06 09:13:38;;;;;;;1.87;1.63;;;10.70;79.20;11.00;96941.00;;;;5033359;28;20741;-88
2023/01/06 09:16:06;;;;;;;5.50;1.70;;;10.70;79.20;11.00;96942.00;;;;5034412;28;20308;-90
2023/01/06 09:18:33;;;;;;;1.60;1.50;;;10.80;79.30;11.10;96940.00;;;;5033351;28;20205;-88
2023/01/06 09:21:01;;;;;;;1.80;1.70;;;10.90;80.10;11.20;96949.00;;;;5034371;28;20211;-90
2023/01/06 09:23:29;;;;;;;1.67;1.57;;;10.90;79.40;11.30;96959.00;;;;5034021;28;20292;-90
2023/01/06 09:25:56;;;;;;;2.53;1.50;;;11.00;79.50;11.30;96959.00;;;;5031708;28;20287;-90
2023/01/06 09:28:25;;;;;;;2.20;1.20;;;11.10;79.50;11.40;96958.00;;;;5035122;28;20663;-90
2023/01/06 09:30:53;;;;;;;2.30;1.30;;;11.10;79.40;11.40;96970.00;;;;5036048;28;20233;-89
2023/01/06 09:33:20;;;;;;;12.50;1.63;;;11.20;79.40;11.50;96966.00;;;;5037681;28;20224;-91
2023/01/06 09:35:48;;;;;;;0.80;0.80;;;11.20;79.10;11.60;96965.00;;;;5037796;28;20664;-90
2023/01/06 09:38:16;;;;;;;13.37;1.70;;;11.30;79.10;11.60;96959.00;;;;5038776;28;20684;-88
2023/01/06 09:41:10;;;;;;;2.70;1.00;;;11.40;79.30;11.70;96966.00;;;;5037678;28;20553;-89
2023/01/06 09:43:50;;;;;;;2.60;0.90;;;11.50;79.50;11.80;96973.00;;;;5035027;28;20247;-89
2023/01/06 09:46:24;;;;;;;8.00;1.23;;;11.60;79.70;12.00;96967.00;;;;5038495;28;20250;-89
2023/01/06 09:49:01;;;;;;;18.10;2.80;;;11.70;79.90;12.20;96958.00;;;;5037571;28;20231;-89
2023/01/06 09:51:32;;;;;;;1.10;0.70;;;11.90;79.90;12.30;96974.00;;;;5037429;28;20302;-89
2023/01/06 09:54:13;;;;;;;13.77;1.57;;;12.00;80.00;12.50;96980.00;;;;5038640;28;20284;-89
2023/01/06 09:56:45;;;;;;;1.60;0.80;;;12.10;80.00;12.70;96981.00;;;;5034400;28;20282;-90
2023/01/06 09:59:22;;;;;;;2.77;1.07;;;12.30;80.10;12.90;96977.00;;;;5039492;28;20222;-88
2023/01/06 10:01:53;;;;;;;2.03;0.67;;;12.50;80.20;13.10;96969.00;;;;5037268;28;20883;-90
2023/01/06 10:04:30;;;;;;;11.07;1.70;;;12.70;80.50;13.30;96980.00;;;;5036855;28;20229;-90
2023/01/06 10:07:14;;;;;;;4.10;1.03;;;12.90;79.90;13.50;96977.00;;;;5037105;28;20197;-88
2023/01/06 10:09:59;;;;;;;11.70;1.77;;;13.10;79.90;13.70;96968.00;;;;5036770;28;20255;-90
2023/01/06 10:12:46;;;;;;;20.00;1.87;;;13.30;79.70;13.90;96959.00;;;;5035896;28;20231;-89
2023/01/06 10:15:29;;;;;;;2.90;1.00;;;13.50;79.80;14.10;96968.00;;;;5034996;28;20303;-90
2023/01/06 10:18:18;;;;;;;4.07;1.07;;;13.70;79.40;14.30;96967.00;;;;5038146;28;20300;-90
2023/01/06 10:21:00;;;;;;;5.10;1.23;;;13.90;78.80;14.50;96974.00;;;;5036802;28;20280;-87
2023/01/06 10:24:18;;;;;;;2.70;0.87;;;14.20;78.40;14.60;96973.00;;;;5035399;28;20265;-90
2023/01/06 10:26:56;;;;;;;16.83;1.73;;;14.40;76.80;14.70;96977.00;;;;4976002;28;20207;-90
2023/01/06 10:29:32;;;;;;;7.10;1.37;;;14.50;77.50;14.80;96971.00;;;;4974466;28;20242;-90
2023/01/06 10:32:02;;;;;;;19.33;1.83;;;14.70;77.00;15.00;96970.00;;;;5018755;28;20295;-89
2023/01/06 10:34:34;;;;;;;10.73;1.20;;;14.80;76.70;15.10;96966.00;;;;5036431;28;20274;-88
2023/01/06 10:37:14;;;;;;;2.67;0.83;;;14.90;76.30;15.20;96964.00;;;;5039368;28;20727;-90
2023/01/06 10:39:45;;;;;;;2.77;1.00;;;15.10;76.30;15.40;96958.00;;;;5034390;28;20304;-91
2023/01/06 10:45:12;;;;;;;4.40;1.20;;;15.30;75.00;15.50;96956.00;;;;5036894;28;20722;-90
2023/01/06 10:47:42;;;;;;;1.20;1.20;;;15.40;74.50;15.50;96962.00;;;;5035239;28;20202;-90
2023/01/06 10:50:15;;;;;;;0.77;0.77;;;15.40;73.80;15.50;96955.00;;;;5036728;28;20243;-89
2023/01/06 10:52:43;;;;;;;0.73;0.73;;;15.50;73.10;15.40;96951.00;;;;5036102;28;20739;-90
2023/01/06 10:55:38;;;;;;;3.57;0.93;;;15.50;72.70;15.40;96949.00;;;;5035438;28;20308;-90
2023/01/06 10:58:19;;;;;;;2.67;0.90;;;15.40;72.30;15.30;96952.00;;;;5025921;28;20284;-91
2023/01/06 11:00:57;;;;;;;11.93;1.93;;;15.40;71.90;15.30;96950.00;;;;5036429;28;20208;-91
2023/01/06 11:03:25;;;;;;;0.80;0.80;;;15.40;72.00;15.20;96951.00;;;;5036770;28;20197;-90
2023/01/06 11:06:15;;;;;;;1.43;0.97;;;15.30;72.00;15.20;96951.00;;;;5035339;28;20229;-90
2023/01/06 11:08:42;;;;;;;1.13;1.03;;;15.30;71.50;15.10;96940.00;;;;5036682;28;20220;-90
2023/01/06 11:11:13;;;;;;;1.23;0.90;;;15.20;72.20;15.10;96945.00;;;;5038213;28;20292;-90
2023/01/06 11:13:46;;;;;;;0.70;0.70;;;15.10;72.20;15.10;96948.00;;;;5035307;28;20251;-91
2023/01/06 11:16:20;;;;;;;1.00;0.70;;;15.10;72.30;15.10;96943.00;;;;5038764;28;20745;-90